sensor_id;sensor_type;location;lat;lon;timestamp;temperature;humidity
76857;DHT22;69705;44.686;37.628;2023-09-19T00:00:21;20.96;47.63
76857;DHT22;69705;44.686;37.628;2023-09-19T00:02:56;21.00;46.24
76857;DHT22;69705;44.686;37.628;2023-09-19T00:05:33;20.98;49.39
76857;DHT22;69705;44.686;37.628;2023-09-19T00:08:01;20.84;47.39
76857;DHT22;69705;44.686;37.628;2023-09-19T00:10:32;20.80;49.29
76857;DHT22;69705;44.686;37.628;2023-09-19T00:13:02;20.83;47.15
76857;DHT22;69705;44.686;37.628;2023-09-19T00:15:38;20.83;47.14
76857;DHT22;69705;44.686;37.628;2023-09-19T00:18:06;20.94;45.74
76857;DHT22;69705;44.686;37.628;2023-09-19T00:20:36;21.05;46.97
76857;DHT22;69705;44.686;37.628;2023-09-19T00:23:03;20.99;46.35
76857;DHT22;69705;44.686;37.628;2023-09-19T00:25:30;20.98;47.38
76857;DHT22;69705;44.686;37.628;2023-09-19T00:27:58;20.91;46.75
76857;DHT22;69705;44.686;37.628;2023-09-19T00:30:24;20.94;46.84
76857;DHT22;69705;44.686;37.628;2023-09-19T00:32:51;20.85;47.87
76857;DHT22;69705;44.686;37.628;2023-09-19T00:35:19;20.72;48.50
76857;DHT22;69705;44.686;37.628;2023-09-19T00:37:45;20.55;50.46
76857;DHT22;69705;44.686;37.628;2023-09-19T00:40:12;20.35;49.28
76857;DHT22;69705;44.686;37.628;2023-09-19T00:42:39;20.26;51.53
76857;DHT22;69705;44.686;37.628;2023-09-19T00:45:11;20.06;53.04
76857;DHT22;69705;44.686;37.628;2023-09-19T00:47:40;19.87;51.14
76857;DHT22;69705;44.686;37.628;2023-09-19T00:50:08;19.71;53.80
76857;DHT22;69705;44.686;37.628;2023-09-19T00:52:37;19.72;52.54
76857;DHT22;69705;44.686;37.628;2023-09-19T00:55:07;19.63;53.11
76857;DHT22;69705;44.686;37.628;2023-09-19T00:57:34;19.56;51.49
76857;DHT22;69705;44.686;37.628;2023-09-19T01:00:05;19.56;52.40
76857;DHT22;69705;44.686;37.628;2023-09-19T01:02:35;19.53;53.36
76857;DHT22;69705;44.686;37.628;2023-09-19T01:05:02;19.52;50.51
76857;DHT22;69705;44.686;37.628;2023-09-19T01:07:31;19.53;52.69
76857;DHT22;69705;44.686;37.628;2023-09-19T01:10:06;19.47;52.11
76857;DHT22;69705;44.686;37.628;2023-09-19T01:16:03;19.35;52.76
76857;DHT22;69705;44.686;37.628;2023-09-19T01:18:58;19.23;53.87
76857;DHT22;69705;44.686;37.628;2023-09-19T01:21:55;19.11;55.01
76857;DHT22;69705;44.686;37.628;2023-09-19T01:24:54;19.17;51.71
76857;DHT22;69705;44.686;37.628;2023-09-19T01:30:22;19.36;52.04
76857;DHT22;69705;44.686;37.628;2023-09-19T01:32:51;19.21;52.02
76857;DHT22;69705;44.686;37.628;2023-09-19T01:35:22;19.21;52.20
76857;DHT22;69705;44.686;37.628;2023-09-19T01:37:49;19.21;55.23
76857;DHT22;69705;44.686;37.628;2023-09-19T01:40:19;19.09;53.40
76857;DHT22;69705;44.686;37.628;2023-09-19T01:45:34;18.97;54.39
76857;DHT22;69705;44.686;37.628;2023-09-19T01:51:21;19.23;52.05
76857;DHT22;69705;44.686;37.628;2023-09-19T01:56:29;19.40;53.24
76857;DHT22;69705;44.686;37.628;2023-09-19T01:59:04;19.44;51.66
76857;DHT22;69705;44.686;37.628;2023-09-19T02:01:33;19.62;50.67
76857;DHT22;69705;44.686;37.628;2023-09-19T02:04:02;19.81;49.75
76857;DHT22;69705;44.686;37.628;2023-09-19T02:06:32;19.95;49.88
76857;DHT22;69705;44.686;37.628;2023-09-19T02:09:00;20.10;49.00
76857;DHT22;69705;44.686;37.628;2023-09-19T02:11:27;20.28;48.19
76857;DHT22;69705;44.686;37.628;2023-09-19T02:13:53;20.42;47.86
76857;DHT22;69705;44.686;37.628;2023-09-19T02:16:20;20.53;47.27
76857;DHT22;69705;44.686;37.628;2023-09-19T02:18:50;20.58;47.18
76857;DHT22;69705;44.686;37.628;2023-09-19T02:21:17;20.62;47.09
76857;DHT22;69705;44.686;37.628;2023-09-19T02:23:45;20.63;46.87
76857;DHT22;69705;44.686;37.628;2023-09-19T02:26:13;20.64;47.22
76857;DHT22;69705;44.686;37.628;2023-09-19T02:28:41;20.65;47.73
76857;DHT22;69705;44.686;37.628;2023-09-19T02:31:09;20.66;47.02
76857;DHT22;69705;44.686;37.628;2023-09-19T02:33:37;20.65;46.33
76857;DHT22;69705;44.686;37.628;2023-09-19T02:36:03;20.75;46.05
76857;DHT22;69705;44.686;37.628;2023-09-19T02:38:33;20.80;46.09
76857;DHT22;69705;44.686;37.628;2023-09-19T02:40:59;20.87;45.89
76857;DHT22;69705;44.686;37.628;2023-09-19T02:43:27;20.87;46.01
76857;DHT22;69705;44.686;37.628;2023-09-19T02:45:54;20.87;46.22
76857;DHT22;69705;44.686;37.628;2023-09-19T02:48:21;20.85;45.56
76857;DHT22;69705;44.686;37.628;2023-09-19T02:50:51;20.83;46.18
76857;DHT22;69705;44.686;37.628;2023-09-19T02:53:18;20.85;46.31
76857;DHT22;69705;44.686;37.628;2023-09-19T02:55:46;20.89;45.90
76857;DHT22;69705;44.686;37.628;2023-09-19T02:58:13;20.91;45.83
76857;DHT22;69705;44.686;37.628;2023-09-19T03:00:41;20.91;46.51
76857;DHT22;69705;44.686;37.628;2023-09-19T03:03:09;20.91;46.28
76857;DHT22;69705;44.686;37.628;2023-09-19T03:05:36;20.92;46.34
76857;DHT22;69705;44.686;37.628;2023-09-19T03:08:04;20.92;46.12
76857;DHT22;69705;44.686;37.628;2023-09-19T03:10:32;20.98;46.30
76857;DHT22;69705;44.686;37.628;2023-09-19T03:12:59;20.96;46.18
76857;DHT22;69705;44.686;37.628;2023-09-19T03:15:27;20.99;46.56
76857;DHT22;69705;44.686;37.628;2023-09-19T03:17:54;20.96;46.81
76857;DHT22;69705;44.686;37.628;2023-09-19T03:20:23;20.96;46.41
76857;DHT22;69705;44.686;37.628;2023-09-19T03:22:51;20.95;46.76
76857;DHT22;69705;44.686;37.628;2023-09-19T03:25:18;20.91;46.97
76857;DHT22;69705;44.686;37.628;2023-09-19T03:27:49;20.90;47.00
76857;DHT22;69705;44.686;37.628;2023-09-19T03:30:16;20.90;46.73
76857;DHT22;69705;44.686;37.628;2023-09-19T03:32:47;20.92;46.06
76857;DHT22;69705;44.686;37.628;2023-09-19T03:35:17;20.94;46.10
76857;DHT22;69705;44.686;37.628;2023-09-19T03:37:45;20.93;46.19
76857;DHT22;69705;44.686;37.628;2023-09-19T03:40:13;20.95;45.54
76857;DHT22;69705;44.686;37.628;2023-09-19T03:42:41;20.99;45.91
76857;DHT22;69705;44.686;37.628;2023-09-19T03:45:12;20.99;45.93
76857;DHT22;69705;44.686;37.628;2023-09-19T03:47:41;20.98;45.55
76857;DHT22;69705;44.686;37.628;2023-09-19T03:50:09;21.00;45.71
76857;DHT22;69705;44.686;37.628;2023-09-19T03:52:44;20.98;45.90
76857;DHT22;69705;44.686;37.628;2023-09-19T03:55:11;20.98;45.54
76857;DHT22;69705;44.686;37.628;2023-09-19T03:57:39;21.01;45.86
76857;DHT22;69705;44.686;37.628;2023-09-19T04:00:06;21.05;45.33
76857;DHT22;69705;44.686;37.628;2023-09-19T04:02:41;21.08;44.77
76857;DHT22;69705;44.686;37.628;2023-09-19T04:05:08;21.15;44.93
76857;DHT22;69705;44.686;37.628;2023-09-19T04:07:35;21.19;45.64
76857;DHT22;69705;44.686;37.628;2023-09-19T04:10:02;21.20;44.58
76857;DHT22;69705;44.686;37.628;2023-09-19T04:12:31;21.27;44.38
76857;DHT22;69705;44.686;37.628;2023-09-19T04:14:59;21.31;44.74
76857;DHT22;69705;44.686;37.628;2023-09-19T04:17:25;21.36;44.43
76857;DHT22;69705;44.686;37.628;2023-09-19T04:19:52;21.38;44.24
76857;DHT22;69705;44.686;37.628;2023-09-19T04:22:20;21.42;44.66
76857;DHT22;69705;44.686;37.628;2023-09-19T04:24:46;21.48;44.22
76857;DHT22;69705;44.686;37.628;2023-09-19T04:27:13;21.51;43.89
76857;DHT22;69705;44.686;37.628;2023-09-19T04:29:41;21.57;43.96
76857;DHT22;69705;44.686;37.628;2023-09-19T04:32:10;21.63;43.59
76857;DHT22;69705;44.686;37.628;2023-09-19T04:34:37;21.63;43.27
76857;DHT22;69705;44.686;37.628;2023-09-19T04:37:06;21.70;44.45
76857;DHT22;69705;44.686;37.628;2023-09-19T04:39:33;21.74;42.78
76857;DHT22;69705;44.686;37.628;2023-09-19T04:42:00;21.76;41.55
76857;DHT22;69705;44.686;37.628;2023-09-19T04:44:27;21.83;42.58
76857;DHT22;69705;44.686;37.628;2023-09-19T04:46:54;21.88;40.97
76857;DHT22;69705;44.686;37.628;2023-09-19T04:49:21;21.92;41.23
76857;DHT22;69705;44.686;37.628;2023-09-19T04:51:47;21.95;41.33
76857;DHT22;69705;44.686;37.628;2023-09-19T04:54:16;22.02;40.75
76857;DHT22;69705;44.686;37.628;2023-09-19T04:56:44;22.06;40.12
76857;DHT22;69705;44.686;37.628;2023-09-19T04:59:11;22.11;39.43
76857;DHT22;69705;44.686;37.628;2023-09-19T05:01:37;22.20;39.49
76857;DHT22;69705;44.686;37.628;2023-09-19T05:04:04;22.28;39.00
76857;DHT22;69705;44.686;37.628;2023-09-19T05:06:31;22.33;38.59
76857;DHT22;69705;44.686;37.628;2023-09-19T05:09:01;22.36;39.44
76857;DHT22;69705;44.686;37.628;2023-09-19T05:11:31;22.39;37.77
76857;DHT22;69705;44.686;37.628;2023-09-19T05:13:57;22.47;38.88
76857;DHT22;69705;44.686;37.628;2023-09-19T05:16:28;22.50;37.53
76857;DHT22;69705;44.686;37.628;2023-09-19T05:18:55;22.56;37.97
76857;DHT22;69705;44.686;37.628;2023-09-19T05:21:22;22.64;39.02
76857;DHT22;69705;44.686;37.628;2023-09-19T05:23:51;22.67;39.16
76857;DHT22;69705;44.686;37.628;2023-09-19T05:26:18;22.73;38.56
76857;DHT22;69705;44.686;37.628;2023-09-19T05:28:46;22.77;38.41
76857;DHT22;69705;44.686;37.628;2023-09-19T05:31:14;22.80;38.12
76857;DHT22;69705;44.686;37.628;2023-09-19T05:33:41;22.83;38.11
76857;DHT22;69705;44.686;37.628;2023-09-19T05:36:09;22.90;38.05
76857;DHT22;69705;44.686;37.628;2023-09-19T05:38:38;22.95;37.71
76857;DHT22;69705;44.686;37.628;2023-09-19T05:41:08;23.02;37.20
76857;DHT22;69705;44.686;37.628;2023-09-19T05:43:36;23.11;37.06
76857;DHT22;69705;44.686;37.628;2023-09-19T05:46:04;23.17;37.36
76857;DHT22;69705;44.686;37.628;2023-09-19T05:48:31;23.25;36.81
76857;DHT22;69705;44.686;37.628;2023-09-19T05:50:57;23.30;37.30
76857;DHT22;69705;44.686;37.628;2023-09-19T05:53:24;23.35;37.08
76857;DHT22;69705;44.686;37.628;2023-09-19T05:55:52;23.42;37.34
76857;DHT22;69705;44.686;37.628;2023-09-19T05:58:20;23.47;35.80
76857;DHT22;69705;44.686;37.628;2023-09-19T06:00:47;23.54;35.73
76857;DHT22;69705;44.686;37.628;2023-09-19T06:03:15;23.60;36.14
76857;DHT22;69705;44.686;37.628;2023-09-19T06:05:45;23.68;35.29
76857;DHT22;69705;44.686;37.628;2023-09-19T06:08:12;23.70;35.08
76857;DHT22;69705;44.686;37.628;2023-09-19T06:10:39;23.76;34.98
76857;DHT22;69705;44.686;37.628;2023-09-19T06:13:06;23.85;35.90
76857;DHT22;69705;44.686;37.628;2023-09-19T06:15:36;23.91;35.36
76857;DHT22;69705;44.686;37.628;2023-09-19T06:18:03;24.00;35.26
76857;DHT22;69705;44.686;37.628;2023-09-19T06:20:32;24.11;36.21
76857;DHT22;69705;44.686;37.628;2023-09-19T06:22:59;24.17;34.05
76857;DHT22;69705;44.686;37.628;2023-09-19T06:25:28;24.18;35.66
76857;DHT22;69705;44.686;37.628;2023-09-19T06:27:55;24.24;34.04
76857;DHT22;69705;44.686;37.628;2023-09-19T06:30:23;24.29;33.78
76857;DHT22;69705;44.686;37.628;2023-09-19T06:32:59;24.35;32.69
76857;DHT22;69705;44.686;37.628;2023-09-19T06:35:28;24.49;34.47
76857;DHT22;69705;44.686;37.628;2023-09-19T06:37:56;24.61;33.32
76857;DHT22;69705;44.686;37.628;2023-09-19T06:40:24;24.73;33.89
76857;DHT22;69705;44.686;37.628;2023-09-19T06:42:52;24.76;32.22
76857;DHT22;69705;44.686;37.628;2023-09-19T06:45:22;24.84;32.01
76857;DHT22;69705;44.686;37.628;2023-09-19T06:47:50;24.86;32.33
76857;DHT22;69705;44.686;37.628;2023-09-19T06:50:19;24.98;32.47
76857;DHT22;69705;44.686;37.628;2023-09-19T06:52:46;25.01;32.55
76857;DHT22;69705;44.686;37.628;2023-09-19T06:55:18;25.03;31.48
76857;DHT22;69705;44.686;37.628;2023-09-19T06:57:46;25.07;31.35
76857;DHT22;69705;44.686;37.628;2023-09-19T07:00:14;25.15;32.10
76857;DHT22;69705;44.686;37.628;2023-09-19T07:03:01;25.17;32.02
76857;DHT22;69705;44.686;37.628;2023-09-19T07:05:31;25.19;31.31
76857;DHT22;69705;44.686;37.628;2023-09-19T07:08:01;25.22;31.80
76857;DHT22;69705;44.686;37.628;2023-09-19T07:10:29;25.30;31.38
76857;DHT22;69705;44.686;37.628;2023-09-19T07:12:59;25.33;31.26
76857;DHT22;69705;44.686;37.628;2023-09-19T07:15:27;25.36;30.96
76857;DHT22;69705;44.686;37.628;2023-09-19T07:17:55;25.40;30.81
76857;DHT22;69705;44.686;37.628;2023-09-19T07:20:23;25.49;32.09
76857;DHT22;69705;44.686;37.628;2023-09-19T07:22:53;25.60;30.96
76857;DHT22;69705;44.686;37.628;2023-09-19T07:25:27;25.66;32.79
76857;DHT22;69705;44.686;37.628;2023-09-19T07:27:57;25.71;31.16
76857;DHT22;69705;44.686;37.628;2023-09-19T07:30:27;25.74;31.32
76857;DHT22;69705;44.686;37.628;2023-09-19T07:32:54;25.86;31.07
76857;DHT22;69705;44.686;37.628;2023-09-19T07:35:21;25.91;31.81
76857;DHT22;69705;44.686;37.628;2023-09-19T07:37:49;25.98;31.11
76857;DHT22;69705;44.686;37.628;2023-09-19T07:40:18;26.05;30.04
76857;DHT22;69705;44.686;37.628;2023-09-19T07:42:46;26.04;31.58
76857;DHT22;69705;44.686;37.628;2023-09-19T07:45:13;26.17;30.58
76857;DHT22;69705;44.686;37.628;2023-09-19T07:47:50;26.19;30.20
76857;DHT22;69705;44.686;37.628;2023-09-19T07:50:18;26.28;30.04
76857;DHT22;69705;44.686;37.628;2023-09-19T07:52:46;26.32;30.75
76857;DHT22;69705;44.686;37.628;2023-09-19T07:55:13;26.43;30.10
76857;DHT22;69705;44.686;37.628;2023-09-19T07:57:43;26.38;29.48
76857;DHT22;69705;44.686;37.628;2023-09-19T08:00:10;26.46;30.40
76857;DHT22;69705;44.686;37.628;2023-09-19T08:02:39;26.47;29.68
76857;DHT22;69705;44.686;37.628;2023-09-19T08:05:07;26.67;29.85
76857;DHT22;69705;44.686;37.628;2023-09-19T08:07:38;26.75;29.51
76857;DHT22;69705;44.686;37.628;2023-09-19T08:10:06;26.81;28.70
76857;DHT22;69705;44.686;37.628;2023-09-19T08:12:40;26.80;29.42
76857;DHT22;69705;44.686;37.628;2023-09-19T08:15:17;26.93;29.01
76857;DHT22;69705;44.686;37.628;2023-09-19T08:17:43;26.90;28.96
76857;DHT22;69705;44.686;37.628;2023-09-19T08:20:10;26.96;29.16
76857;DHT22;69705;44.686;37.628;2023-09-19T08:22:50;27.06;27.68
76857;DHT22;69705;44.686;37.628;2023-09-19T08:25:18;27.11;28.89
76857;DHT22;69705;44.686;37.628;2023-09-19T08:27:46;27.16;28.15
76857;DHT22;69705;44.686;37.628;2023-09-19T08:30:15;27.31;27.13
76857;DHT22;69705;44.686;37.628;2023-09-19T08:32:42;27.41;28.44
76857;DHT22;69705;44.686;37.628;2023-09-19T08:35:10;27.35;27.19
76857;DHT22;69705;44.686;37.628;2023-09-19T08:37:37;27.51;28.74
76857;DHT22;69705;44.686;37.628;2023-09-19T08:40:04;27.80;28.54
76857;DHT22;69705;44.686;37.628;2023-09-19T08:42:49;27.96;28.17
76857;DHT22;69705;44.686;37.628;2023-09-19T08:45:17;28.15;27.94
76857;DHT22;69705;44.686;37.628;2023-09-19T08:47:55;28.27;28.94
76857;DHT22;69705;44.686;37.628;2023-09-19T08:50:28;28.52;30.01
76857;DHT22;69705;44.686;37.628;2023-09-19T08:52:56;28.68;26.81
76857;DHT22;69705;44.686;37.628;2023-09-19T08:55:29;28.76;27.26
76857;DHT22;69705;44.686;37.628;2023-09-19T08:58:01;29.00;27.07
76857;DHT22;69705;44.686;37.628;2023-09-19T09:00:28;29.03;25.20
76857;DHT22;69705;44.686;37.628;2023-09-19T09:02:57;28.99;24.82
76857;DHT22;69705;44.686;37.628;2023-09-19T09:05:25;29.28;26.99
76857;DHT22;69705;44.686;37.628;2023-09-19T09:07:53;29.46;25.48
76857;DHT22;69705;44.686;37.628;2023-09-19T09:10:23;29.60;26.63
76857;DHT22;69705;44.686;37.628;2023-09-19T09:12:53;29.73;25.77
76857;DHT22;69705;44.686;37.628;2023-09-19T09:15:24;29.75;25.03
76857;DHT22;69705;44.686;37.628;2023-09-19T09:17:51;29.85;24.64
76857;DHT22;69705;44.686;37.628;2023-09-19T09:20:21;29.82;25.41
76857;DHT22;69705;44.686;37.628;2023-09-19T09:22:52;29.85;24.26
76857;DHT22;69705;44.686;37.628;2023-09-19T09:25:22;29.97;23.34
76857;DHT22;69705;44.686;37.628;2023-09-19T09:28:01;30.10;24.89
76857;DHT22;69705;44.686;37.628;2023-09-19T09:30:36;30.21;25.57
76857;DHT22;69705;44.686;37.628;2023-09-19T09:33:14;30.36;24.08
76857;DHT22;69705;44.686;37.628;2023-09-19T09:35:53;30.33;22.97
76857;DHT22;69705;44.686;37.628;2023-09-19T09:38:24;30.07;23.58
76857;DHT22;69705;44.686;37.628;2023-09-19T09:41:00;29.95;23.72
76857;DHT22;69705;44.686;37.628;2023-09-19T09:43:38;30.01;24.88
76857;DHT22;69705;44.686;37.628;2023-09-19T09:46:08;30.12;23.65
76857;DHT22;69705;44.686;37.628;2023-09-19T09:51:49;30.28;23.82
76857;DHT22;69705;44.686;37.628;2023-09-19T09:54:27;30.38;24.45
76857;DHT22;69705;44.686;37.628;2023-09-19T09:57:01;30.40;23.36
76857;DHT22;69705;44.686;37.628;2023-09-19T09:59:47;30.48;23.59
76857;DHT22;69705;44.686;37.628;2023-09-19T10:02:17;30.56;24.28
76857;DHT22;69705;44.686;37.628;2023-09-19T10:04:51;30.62;24.11
76857;DHT22;69705;44.686;37.628;2023-09-19T10:07:26;30.74;24.94
76857;DHT22;69705;44.686;37.628;2023-09-19T10:10:00;30.76;24.35
76857;DHT22;69705;44.686;37.628;2023-09-19T10:12:39;30.67;24.83
76857;DHT22;69705;44.686;37.628;2023-09-19T10:15:10;30.75;24.63
76857;DHT22;69705;44.686;37.628;2023-09-19T10:17:39;30.69;24.43
76857;DHT22;69705;44.686;37.628;2023-09-19T10:20:15;30.72;25.70
76857;DHT22;69705;44.686;37.628;2023-09-19T10:23:04;30.75;25.05
76857;DHT22;69705;44.686;37.628;2023-09-19T10:25:37;30.99;25.54
76857;DHT22;69705;44.686;37.628;2023-09-19T10:28:07;31.10;25.91
76857;DHT22;69705;44.686;37.628;2023-09-19T10:30:45;31.30;23.81
76857;DHT22;69705;44.686;37.628;2023-09-19T10:33:15;31.21;22.97
76857;DHT22;69705;44.686;37.628;2023-09-19T10:35:47;31.10;24.11
76857;DHT22;69705;44.686;37.628;2023-09-19T10:38:18;31.04;24.08
76857;DHT22;69705;44.686;37.628;2023-09-19T10:40:54;31.04;23.79
76857;DHT22;69705;44.686;37.628;2023-09-19T10:43:23;31.04;22.29
76857;DHT22;69705;44.686;37.628;2023-09-19T10:45:53;31.10;23.08
76857;DHT22;69705;44.686;37.628;2023-09-19T10:48:23;31.23;21.52
76857;DHT22;69705;44.686;37.628;2023-09-19T10:53:41;31.31;24.40
76857;DHT22;69705;44.686;37.628;2023-09-19T10:56:18;31.38;24.72
76857;DHT22;69705;44.686;37.628;2023-09-19T10:58:45;31.41;24.81
76857;DHT22;69705;44.686;37.628;2023-09-19T11:01:13;31.43;25.07
76857;DHT22;69705;44.686;37.628;2023-09-19T11:03:44;31.56;25.07
76857;DHT22;69705;44.686;37.628;2023-09-19T11:06:19;31.56;24.65
76857;DHT22;69705;44.686;37.628;2023-09-19T11:09:04;31.49;23.43
76857;DHT22;69705;44.686;37.628;2023-09-19T11:11:44;31.27;23.36
76857;DHT22;69705;44.686;37.628;2023-09-19T11:30:36;31.43;22.75
76857;DHT22;69705;44.686;37.628;2023-09-19T11:33:27;31.50;23.32
76857;DHT22;69705;44.686;37.628;2023-09-19T11:36:14;31.44;23.79
76857;DHT22;69705;44.686;37.628;2023-09-19T11:43:50;31.26;25.43
76857;DHT22;69705;44.686;37.628;2023-09-19T11:46:18;31.29;25.17
76857;DHT22;69705;44.686;37.628;2023-09-19T11:48:49;31.19;25.48
76857;DHT22;69705;44.686;37.628;2023-09-19T11:51:24;31.40;28.77
76857;DHT22;69705;44.686;37.628;2023-09-19T11:53:57;31.43;31.32
76857;DHT22;69705;44.686;37.628;2023-09-19T11:56:28;31.37;29.77
76857;DHT22;69705;44.686;37.628;2023-09-19T11:58:56;31.29;32.19
76857;DHT22;69705;44.686;37.628;2023-09-19T12:01:32;31.11;32.83
76857;DHT22;69705;44.686;37.628;2023-09-19T12:04:01;30.63;34.18
76857;DHT22;69705;44.686;37.628;2023-09-19T12:06:30;30.55;34.61
76857;DHT22;69705;44.686;37.628;2023-09-19T12:08:59;30.45;35.03
76857;DHT22;69705;44.686;37.628;2023-09-19T12:11:30;30.51;35.15
76857;DHT22;69705;44.686;37.628;2023-09-19T12:14:00;30.64;34.15
76857;DHT22;69705;44.686;37.628;2023-09-19T12:16:27;30.67;33.60
76857;DHT22;69705;44.686;37.628;2023-09-19T12:18:57;30.61;32.52
76857;DHT22;69705;44.686;37.628;2023-09-19T12:21:44;30.48;33.45
76857;DHT22;69705;44.686;37.628;2023-09-19T12:24:13;30.40;32.37
76857;DHT22;69705;44.686;37.628;2023-09-19T12:26:42;30.45;33.14
76857;DHT22;69705;44.686;37.628;2023-09-19T12:29:16;30.34;32.44
76857;DHT22;69705;44.686;37.628;2023-09-19T12:31:57;30.34;31.29
76857;DHT22;69705;44.686;37.628;2023-09-19T12:34:26;30.33;33.41
76857;DHT22;69705;44.686;37.628;2023-09-19T12:37:12;30.05;34.18
76857;DHT22;69705;44.686;37.628;2023-09-19T12:39:43;29.98;33.97
76857;DHT22;69705;44.686;37.628;2023-09-19T12:42:20;29.96;34.87
76857;DHT22;69705;44.686;37.628;2023-09-19T12:44:53;30.00;34.93
76857;DHT22;69705;44.686;37.628;2023-09-19T12:47:24;29.88;35.31
76857;DHT22;69705;44.686;37.628;2023-09-19T12:50:10;29.85;35.20
76857;DHT22;69705;44.686;37.628;2023-09-19T12:55:29;29.57;35.58
76857;DHT22;69705;44.686;37.628;2023-09-19T13:00:40;29.18;37.73
76857;DHT22;69705;44.686;37.628;2023-09-19T13:03:18;28.84;37.76
76857;DHT22;69705;44.686;37.628;2023-09-19T13:05:52;28.82;36.79
76857;DHT22;69705;44.686;37.628;2023-09-19T13:08:27;28.63;36.21
76857;DHT22;69705;44.686;37.628;2023-09-19T13:11:17;28.65;31.91
76857;DHT22;69705;44.686;37.628;2023-09-19T13:13:46;28.60;34.40
76857;DHT22;69705;44.686;37.628;2023-09-19T13:16:21;28.45;34.86
76857;DHT22;69705;44.686;37.628;2023-09-19T13:18:50;28.35;36.19
76857;DHT22;69705;44.686;37.628;2023-09-19T13:21:34;28.24;35.45
76857;DHT22;69705;44.686;37.628;2023-09-19T13:24:22;28.10;38.15
76857;DHT22;69705;44.686;37.628;2023-09-19T13:26:49;27.90;37.53
76857;DHT22;69705;44.686;37.628;2023-09-19T13:29:16;27.82;33.57
76857;DHT22;69705;44.686;37.628;2023-09-19T13:31:49;27.80;36.08
76857;DHT22;69705;44.686;37.628;2023-09-19T13:34:16;27.70;36.14
76857;DHT22;69705;44.686;37.628;2023-09-19T13:36:44;27.61;37.87
76857;DHT22;69705;44.686;37.628;2023-09-19T13:39:11;27.50;38.36
76857;DHT22;69705;44.686;37.628;2023-09-19T13:41:44;27.43;38.43
76857;DHT22;69705;44.686;37.628;2023-09-19T13:44:13;27.37;37.60
76857;DHT22;69705;44.686;37.628;2023-09-19T13:46:40;27.29;39.26
76857;DHT22;69705;44.686;37.628;2023-09-19T13:49:12;27.21;39.78
76857;DHT22;69705;44.686;37.628;2023-09-19T13:51:38;27.06;36.96
76857;DHT22;69705;44.686;37.628;2023-09-19T13:54:06;26.98;32.88
76857;DHT22;69705;44.686;37.628;2023-09-19T13:56:32;27.00;33.75
76857;DHT22;69705;44.686;37.628;2023-09-19T13:59:03;26.99;32.57
76857;DHT22;69705;44.686;37.628;2023-09-19T14:01:29;26.97;34.63
76857;DHT22;69705;44.686;37.628;2023-09-19T14:04:08;26.95;32.89
76857;DHT22;69705;44.686;37.628;2023-09-19T14:06:36;26.89;32.96
76857;DHT22;69705;44.686;37.628;2023-09-19T14:09:03;26.86;33.04
76857;DHT22;69705;44.686;37.628;2023-09-19T14:11:30;26.75;33.21
76857;DHT22;69705;44.686;37.628;2023-09-19T14:13:56;26.71;33.16
76857;DHT22;69705;44.686;37.628;2023-09-19T14:16:44;26.68;33.82
76857;DHT22;69705;44.686;37.628;2023-09-19T14:19:11;26.62;32.22
76857;DHT22;69705;44.686;37.628;2023-09-19T14:21:40;26.61;32.73
76857;DHT22;69705;44.686;37.628;2023-09-19T14:24:06;26.62;32.41
76857;DHT22;69705;44.686;37.628;2023-09-19T14:26:36;26.56;32.95
76857;DHT22;69705;44.686;37.628;2023-09-19T14:29:02;26.51;33.02
76857;DHT22;69705;44.686;37.628;2023-09-19T14:31:29;26.49;32.95
76857;DHT22;69705;44.686;37.628;2023-09-19T14:33:57;26.43;33.48
76857;DHT22;69705;44.686;37.628;2023-09-19T14:36:31;26.34;32.42
76857;DHT22;69705;44.686;37.628;2023-09-19T14:38:57;26.31;33.27
76857;DHT22;69705;44.686;37.628;2023-09-19T14:41:24;26.25;32.16
76857;DHT22;69705;44.686;37.628;2023-09-19T14:43:52;26.23;32.68
76857;DHT22;69705;44.686;37.628;2023-09-19T14:46:19;26.21;32.47
76857;DHT22;69705;44.686;37.628;2023-09-19T14:48:45;26.17;33.48
76857;DHT22;69705;44.686;37.628;2023-09-19T14:51:15;26.11;32.67
76857;DHT22;69705;44.686;37.628;2023-09-19T14:53:42;26.12;32.35
76857;DHT22;69705;44.686;37.628;2023-09-19T14:56:09;26.06;32.57
76857;DHT22;69705;44.686;37.628;2023-09-19T14:58:37;26.04;33.05
76857;DHT22;69705;44.686;37.628;2023-09-19T15:01:09;26.02;33.21
76857;DHT22;69705;44.686;37.628;2023-09-19T15:03:40;25.90;33.54
76857;DHT22;69705;44.686;37.628;2023-09-19T15:06:12;25.84;33.76
76857;DHT22;69705;44.686;37.628;2023-09-19T15:08:44;25.79;34.09
76857;DHT22;69705;44.686;37.628;2023-09-19T15:11:15;25.68;34.16
76857;DHT22;69705;44.686;37.628;2023-09-19T15:13:46;25.53;34.76
76857;DHT22;69705;44.686;37.628;2023-09-19T15:16:13;25.42;35.11
76857;DHT22;69705;44.686;37.628;2023-09-19T15:18:41;25.28;35.24
76857;DHT22;69705;44.686;37.628;2023-09-19T15:21:10;25.09;35.61
76857;DHT22;69705;44.686;37.628;2023-09-19T15:23:38;25.00;37.83
76857;DHT22;69705;44.686;37.628;2023-09-19T15:26:06;24.78;37.64
76857;DHT22;69705;44.686;37.628;2023-09-19T15:28:34;24.59;38.31
76857;DHT22;69705;44.686;37.628;2023-09-19T15:31:09;24.48;37.08
76857;DHT22;69705;44.686;37.628;2023-09-19T15:33:37;24.39;39.59
76857;DHT22;69705;44.686;37.628;2023-09-19T15:36:08;24.19;39.65
76857;DHT22;69705;44.686;37.628;2023-09-19T15:38:58;24.18;38.57
76857;DHT22;69705;44.686;37.628;2023-09-19T15:41:26;24.23;37.20
76857;DHT22;69705;44.686;37.628;2023-09-19T15:43:56;24.19;37.73
76857;DHT22;69705;44.686;37.628;2023-09-19T15:46:22;24.10;38.98
76857;DHT22;69705;44.686;37.628;2023-09-19T15:48:50;23.94;39.80
76857;DHT22;69705;44.686;37.628;2023-09-19T15:51:16;23.73;40.88
76857;DHT22;69705;44.686;37.628;2023-09-19T15:53:46;23.57;40.78
76857;DHT22;69705;44.686;37.628;2023-09-19T15:56:18;23.46;42.71
76857;DHT22;69705;44.686;37.628;2023-09-19T15:58:49;23.17;40.75
76857;DHT22;69705;44.686;37.628;2023-09-19T16:01:17;23.01;43.41
76857;DHT22;69705;44.686;37.628;2023-09-19T16:03:46;22.76;44.71
76857;DHT22;69705;44.686;37.628;2023-09-19T16:06:19;22.53;45.77
76857;DHT22;69705;44.686;37.628;2023-09-19T16:08:48;22.26;45.11
76857;DHT22;69705;44.686;37.628;2023-09-19T16:11:17;22.14;46.02
76857;DHT22;69705;44.686;37.628;2023-09-19T16:13:48;21.94;47.51
76857;DHT22;69705;44.686;37.628;2023-09-19T16:16:19;21.79;47.58
76857;DHT22;69705;44.686;37.628;2023-09-19T16:18:51;21.60;48.07
76857;DHT22;69705;44.686;37.628;2023-09-19T16:21:20;21.40;48.16